sensor_id;sensor_type;location;lat;lon;timestamp;pressure;altitude;pressure_sealevel;temperature;humidity
7052;BME280;3567;52.444;13.556;2022-11-12T00:00:14;102789.81;;;4.33;100.00
7052;BME280;3567;52.444;13.556;2022-11-12T00:02:40;102786.44;;;4.31;100.00
7052;BME280;3567;52.444;13.556;2022-11-12T00:05:05;102788.56;;;4.27;100.00
7052;BME280;3567;52.444;13.556;2022-11-12T00:07:30;102785.06;;;4.27;100.00
7052;BME280;3567;52.444;13.556;2022-11-12T00:09:56;102780.84;;;4.24;100.00
7052;BME280;3567;52.444;13.556;2022-11-12T00:12:21;102789.78;;;4.23;100.00
7052;BME280;3567;52.444;13.556;2022-11-12T00:14:46;102791.75;;;4.21;100.00
7052;BME280;3567;52.444;13.556;2022-11-12T00:17:12;102791.19;;;4.17;100.00
7052;BME280;3567;52.444;13.556;2022-11-12T00:19:37;102787.94;;;4.14;100.00
7052;BME280;3567;52.444;13.556;2022-11-12T00:22:02;102782.50;;;4.06;100.00
7052;BME280;3567;52.444;13.556;2022-11-12T00:24:28;102784.31;;;4.05;100.00
7052;BME280;3567;52.444;13.556;2022-11-12T00:26:54;102787.91;;;4.04;100.00
7052;BME280;3567;52.444;13.556;2022-11-12T00:29:19;102786.41;;;4.02;100.00
7052;BME280;3567;52.444;13.556;2022-11-12T00:31:45;102785.56;;;4.01;100.00
7052;BME280;3567;52.444;13.556;2022-11-12T00:34:10;102781.50;;;3.97;100.00
7052;BME280;3567;52.444;13.556;2022-11-12T00:36:35;102789.69;;;3.94;100.00
7052;BME280;3567;52.444;13.556;2022-11-12T00:39:01;102782.19;;;3.89;100.00
7052;BME280;3567;52.444;13.556;2022-11-12T00:41:26;102784.38;;;3.84;100.00
7052;BME280;3567;52.444;13.556;2022-11-12T00:43:51;102783.94;;;3.79;100.00
7052;BME280;3567;52.444;13.556;2022-11-12T00:46:17;102785.88;;;3.77;100.00
7052;BME280;3567;52.444;13.556;2022-11-12T00:48:42;102786.84;;;3.76;100.00
7052;BME280;3567;52.444;13.556;2022-11-12T00:51:08;102782.69;;;3.74;100.00
7052;BME280;3567;52.444;13.556;2022-11-12T00:53:33;102789.06;;;3.71;100.00
7052;BME280;3567;52.444;13.556;2022-11-12T00:56:04;102795.47;;;3.68;100.00
7052;BME280;3567;52.444;13.556;2022-11-12T00:58:34;102790.44;;;3.65;100.00
7052;BME280;3567;52.444;13.556;2022-11-12T01:01:11;102788.75;;;3.64;100.00
7052;BME280;3567;52.444;13.556;2022-11-12T01:03:38;102794.31;;;3.61;100.00
7052;BME280;3567;52.444;13.556;2022-11-12T01:06:09;102783.28;;;3.56;100.00
7052;BME280;3567;52.444;13.556;2022-11-12T01:08:35;102782.72;;;3.53;100.00
7052;BME280;3567;52.444;13.556;2022-11-12T01:11:09;102790.91;;;3.50;100.00
7052;BME280;3567;52.444;13.556;2022-11-12T01:13:36;102786.97;;;3.44;100.00
7052;BME280;3567;52.444;13.556;2022-11-12T01:16:11;102790.03;;;3.39;100.00
7052;BME280;3567;52.444;13.556;2022-11-12T01:18:36;102792.13;;;3.36;100.00
7052;BME280;3567;52.444;13.556;2022-11-12T01:21:04;102785.09;;;3.35;100.00
7052;BME280;3567;52.444;13.556;2022-11-12T01:23:34;102789.72;;;3.33;100.00
7052;BME280;3567;52.444;13.556;2022-11-12T01:26:08;102786.38;;;3.31;100.00
7052;BME280;3567;52.444;13.556;2022-11-12T01:28:34;102786.47;;;3.29;100.00
7052;BME280;3567;52.444;13.556;2022-11-12T01:33:42;102787.00;;;3.23;100.00
7052;BME280;3567;52.444;13.556;2022-11-12T01:36:08;102788.22;;;3.19;100.00
7052;BME280;3567;52.444;13.556;2022-11-12T01:38:34;102789.47;;;3.15;100.00
7052;BME280;3567;52.444;13.556;2022-11-12T01:41:00;102790.84;;;3.09;100.00
7052;BME280;3567;52.444;13.556;2022-11-12T01:43:25;102791.31;;;3.03;100.00
7052;BME280;3567;52.444;13.556;2022-11-12T01:45:51;102795.22;;;2.99;100.00
7052;BME280;3567;52.444;13.556;2022-11-12T01:48:26;102791.28;;;2.94;100.00
7052;BME280;3567;52.444;13.556;2022-11-12T01:50:53;102799.31;;;2.92;100.00
7052;BME280;3567;52.444;13.556;2022-11-12T01:53:21;102797.78;;;2.89;100.00
7052;BME280;3567;52.444;13.556;2022-11-12T01:55:47;102789.13;;;2.87;100.00
7052;BME280;3567;52.444;13.556;2022-11-12T01:58:15;102794.41;;;2.87;100.00
7052;BME280;3567;52.444;13.556;2022-11-12T02:00:43;102791.91;;;2.86;100.00
7052;BME280;3567;52.444;13.556;2022-11-12T02:03:16;102791.06;;;2.85;100.00
7052;BME280;3567;52.444;13.556;2022-11-12T02:05:43;102798.31;;;2.83;100.00
7052;BME280;3567;52.444;13.556;2022-11-12T02:08:11;102797.69;;;2.80;100.00
7052;BME280;3567;52.444;13.556;2022-11-12T02:10:38;102794.47;;;2.76;100.00
7052;BME280;3567;52.444;13.556;2022-11-12T02:13:03;102797.94;;;2.77;100.00
7052;BME280;3567;52.444;13.556;2022-11-12T02:15:50;102799.06;;;2.74;100.00
7052;BME280;3567;52.444;13.556;2022-11-12T02:18:16;102794.88;;;2.72;100.00
7052;BME280;3567;52.444;13.556;2022-11-12T02:20:41;102793.16;;;2.71;100.00
7052;BME280;3567;52.444;13.556;2022-11-12T02:23:07;102801.38;;;2.68;100.00
7052;BME280;3567;52.444;13.556;2022-11-12T02:25:34;102809.31;;;2.68;100.00
7052;BME280;3567;52.444;13.556;2022-11-12T02:28:00;102812.94;;;2.67;100.00
7052;BME280;3567;52.444;13.556;2022-11-12T02:30:46;102805.94;;;2.66;100.00
7052;BME280;3567;52.444;13.556;2022-11-12T02:33:12;102805.22;;;2.63;100.00
7052;BME280;3567;52.444;13.556;2022-11-12T02:35:38;102808.97;;;2.61;100.00
7052;BME280;3567;52.444;13.556;2022-11-12T02:38:05;102809.81;;;2.61;100.00
7052;BME280;3567;52.444;13.556;2022-11-12T02:40:31;102815.94;;;2.62;100.00
7052;BME280;3567;52.444;13.556;2022-11-12T02:42:56;102820.50;;;2.60;100.00
7052;BME280;3567;52.444;13.556;2022-11-12T02:45:22;102825.69;;;2.61;100.00
7052;BME280;3567;52.444;13.556;2022-11-12T02:47:47;102825.94;;;2.58;100.00
7052;BME280;3567;52.444;13.556;2022-11-12T02:50:13;102837.47;;;2.57;100.00
7052;BME280;3567;52.444;13.556;2022-11-12T02:52:38;102838.69;;;2.53;100.00
7052;BME280;3567;52.444;13.556;2022-11-12T02:55:06;102846.84;;;2.50;100.00
7052;BME280;3567;52.444;13.556;2022-11-12T02:57:31;102840.03;;;2.48;100.00
7052;BME280;3567;52.444;13.556;2022-11-12T02:59:57;102847.25;;;2.46;100.00
7052;BME280;3567;52.444;13.556;2022-11-12T03:02:22;102845.44;;;2.46;100.00
7052;BME280;3567;52.444;13.556;2022-11-12T03:04:47;102847.34;;;2.44;100.00
7052;BME280;3567;52.444;13.556;2022-11-12T03:07:13;102847.34;;;2.44;100.00
7052;BME280;3567;52.444;13.556;2022-11-12T03:09:38;102857.22;;;2.42;100.00
7052;BME280;3567;52.444;13.556;2022-11-12T03:12:03;102852.91;;;2.41;100.00
7052;BME280;3567;52.444;13.556;2022-11-12T03:14:29;102855.78;;;2.38;100.00
7052;BME280;3567;52.444;13.556;2022-11-12T03:16:54;102862.03;;;2.37;100.00
7052;BME280;3567;52.444;13.556;2022-11-12T03:19:19;102854.34;;;2.34;100.00
7052;BME280;3567;52.444;13.556;2022-11-12T03:21:45;102859.75;;;2.32;100.00
7052;BME280;3567;52.444;13.556;2022-11-12T03:24:10;102859.75;;;2.32;100.00
7052;BME280;3567;52.444;13.556;2022-11-12T03:26:35;102861.81;;;2.29;100.00
7052;BME280;3567;52.444;13.556;2022-11-12T03:29:01;102868.06;;;2.28;100.00
7052;BME280;3567;52.444;13.556;2022-11-12T03:31:26;102859.56;;;2.24;100.00
7052;BME280;3567;52.444;13.556;2022-11-12T03:33:52;102869.28;;;2.24;100.00
7052;BME280;3567;52.444;13.556;2022-11-12T03:36:17;102865.91;;;2.22;100.00
7052;BME280;3567;52.444;13.556;2022-11-12T03:38:43;102856.44;;;2.19;100.00
7052;BME280;3567;52.444;13.556;2022-11-12T03:41:08;102859.44;;;2.15;100.00
7052;BME280;3567;52.444;13.556;2022-11-12T03:43:33;102862.31;;;2.12;100.00
7052;BME280;3567;52.444;13.556;2022-11-12T03:45:59;102860.50;;;2.12;100.00
7052;BME280;3567;52.444;13.556;2022-11-12T03:48:24;102862.44;;;2.10;100.00
7052;BME280;3567;52.444;13.556;2022-11-12T03:50:49;102858.13;;;2.09;100.00
7052;BME280;3567;52.444;13.556;2022-11-12T03:53:15;102862.44;;;2.10;100.00
7052;BME280;3567;52.444;13.556;2022-11-12T03:55:40;102860.03;;;2.07;100.00
7052;BME280;3567;52.444;13.556;2022-11-12T03:58:06;102851.25;;;2.06;100.00
7052;BME280;3567;52.444;13.556;2022-11-12T04:00:31;102856.53;;;2.06;100.00
7052;BME280;3567;52.444;13.556;2022-11-12T04:02:58;102867.25;;;2.05;100.00
7052;BME280;3567;52.444;13.556;2022-11-12T04:05:24;102865.66;;;2.02;100.00
7052;BME280;3567;52.444;13.556;2022-11-12T04:08:15;102865.66;;;2.02;100.00
7052;BME280;3567;52.444;13.556;2022-11-12T04:11:02;102863.16;;;2.01;100.00
7052;BME280;3567;52.444;13.556;2022-11-12T04:13:28;102853.91;;;1.95;100.00
7052;BME280;3567;52.444;13.556;2022-11-12T04:18:43;102858.47;;;1.93;100.00
7052;BME280;3567;52.444;13.556;2022-11-12T04:21:45;102864.72;;;1.92;100.00
7052;BME280;3567;52.444;13.556;2022-11-12T04:27:04;102867.59;;;1.89;100.00
7052;BME280;3567;52.444;13.556;2022-11-12T04:29:30;102875.53;;;1.89;100.00
7052;BME280;3567;52.444;13.556;2022-11-12T04:32:15;102871.44;;;1.85;100.00
7052;BME280;3567;52.444;13.556;2022-11-12T04:34:40;102880.31;;;1.84;100.00
7052;BME280;3567;52.444;13.556;2022-11-12T04:37:06;102876.84;;;1.83;100.00
7052;BME280;3567;52.444;13.556;2022-11-12T04:39:31;102881.28;;;1.83;100.00
7052;BME280;3567;52.444;13.556;2022-11-12T04:41:57;102879.63;;;1.82;100.00
7052;BME280;3567;52.444;13.556;2022-11-12T04:44:41;102873.59;;;1.80;100.00
7052;BME280;3567;52.444;13.556;2022-11-12T04:47:31;102879.00;;;1.78;100.00
7052;BME280;3567;52.444;13.556;2022-11-12T04:49:57;102879.97;;;1.77;100.00
7052;BME280;3567;52.444;13.556;2022-11-12T04:52:23;102884.41;;;1.77;100.00
7052;BME280;3567;52.444;13.556;2022-11-12T04:54:48;102875.75;;;1.75;100.00
7052;BME280;3567;52.444;13.556;2022-11-12T04:57:14;102882.75;;;1.76;100.00
7052;BME280;3567;52.444;13.556;2022-11-12T04:59:39;102876.97;;;1.71;100.00
7052;BME280;3567;52.444;13.556;2022-11-12T05:02:04;102878.63;;;1.72;100.00
7052;BME280;3567;52.444;13.556;2022-11-12T05:04:30;102882.25;;;1.71;100.00
7052;BME280;3567;52.444;13.556;2022-11-12T05:06:56;102884.88;;;1.71;100.00
7052;BME280;3567;52.444;13.556;2022-11-12T05:09:26;102880.53;;;1.70;100.00
7052;BME280;3567;52.444;13.556;2022-11-12T05:11:53;102881.63;;;1.67;100.00
7052;BME280;3567;52.444;13.556;2022-11-12T05:14:22;102890.63;;;1.65;100.00
7052;BME280;3567;52.444;13.556;2022-11-12T05:16:48;102892.41;;;1.64;100.00
7052;BME280;3567;52.444;13.556;2022-11-12T05:19:14;102892.75;;;1.60;100.00
7052;BME280;3567;52.444;13.556;2022-11-12T05:21:39;102896.38;;;1.58;100.00
7052;BME280;3567;52.444;13.556;2022-11-12T05:24:24;102904.28;;;1.58;100.00
7052;BME280;3567;52.444;13.556;2022-11-12T05:26:49;102907.91;;;1.57;100.00
7052;BME280;3567;52.444;13.556;2022-11-12T05:29:15;102897.56;;;1.54;100.00
7052;BME280;3567;52.444;13.556;2022-11-12T05:31:40;102898.84;;;1.49;100.00
7052;BME280;3567;52.444;13.556;2022-11-12T05:34:06;102903.44;;;1.47;100.00
7052;BME280;3567;52.444;13.556;2022-11-12T05:36:31;102904.41;;;1.46;100.00
7052;BME280;3567;52.444;13.556;2022-11-12T05:38:56;102900.91;;;1.45;100.00
7052;BME280;3567;52.444;13.556;2022-11-12T05:41:22;102899.22;;;1.44;100.00
7052;BME280;3567;52.444;13.556;2022-11-12T05:43:47;102889.72;;;1.42;100.00
7052;BME280;3567;52.444;13.556;2022-11-12T05:46:12;102892.50;;;1.40;100.00
7052;BME280;3567;52.444;13.556;2022-11-12T05:48:38;102898.97;;;1.36;100.00
7052;BME280;3567;52.444;13.556;2022-11-12T05:51:03;102891.16;;;1.35;100.00
7052;BME280;3567;52.444;13.556;2022-11-12T05:53:28;102899.16;;;1.33;100.00
7052;BME280;3567;52.444;13.556;2022-11-12T05:56:03;102902.78;;;1.32;100.00
7052;BME280;3567;52.444;13.556;2022-11-12T05:58:28;102901.09;;;1.31;100.00
7052;BME280;3567;52.444;13.556;2022-11-12T06:00:53;102904.44;;;1.33;100.00
7052;BME280;3567;52.444;13.556;2022-11-12T06:03:19;102909.84;;;1.31;100.00
7052;BME280;3567;52.444;13.556;2022-11-12T06:05:44;102904.69;;;1.30;100.00
7052;BME280;3567;52.444;13.556;2022-11-12T06:08:10;102903.97;;;1.28;100.00
7052;BME280;3567;52.444;13.556;2022-11-12T06:10:35;102907.56;;;1.27;100.00
7052;BME280;3567;52.444;13.556;2022-11-12T06:13:00;102899.88;;;1.24;100.00
7052;BME280;3567;52.444;13.556;2022-11-12T06:15:26;102901.69;;;1.23;100.00
7052;BME280;3567;52.444;13.556;2022-11-12T06:17:52;102899.88;;;1.24;100.00
7052;BME280;3567;52.444;13.556;2022-11-12T06:20:18;102901.56;;;1.25;100.00
7052;BME280;3567;52.444;13.556;2022-11-12T06:22:43;102902.41;;;1.25;100.00
7052;BME280;3567;52.444;13.556;2022-11-12T06:25:09;102918.13;;;1.27;100.00
7052;BME280;3567;52.444;13.556;2022-11-12T06:27:34;102904.91;;;1.27;100.00
7052;BME280;3567;52.444;13.556;2022-11-12T06:29:59;102915.38;;;1.28;100.00
7052;BME280;3567;52.444;13.556;2022-11-12T06:32:25;102905.53;;;1.30;100.00
7052;BME280;3567;52.444;13.556;2022-11-12T06:34:50;102906.03;;;1.36;100.00
7052;BME280;3567;52.444;13.556;2022-11-12T06:37:18;102913.63;;;1.40;100.00
7052;BME280;3567;52.444;13.556;2022-11-12T06:39:43;102909.81;;;1.44;100.00
7052;BME280;3567;52.444;13.556;2022-11-12T06:42:09;102921.06;;;1.46;100.00
7052;BME280;3567;52.444;13.556;2022-11-12T06:44:34;102929.97;;;1.45;100.00
7052;BME280;3567;52.444;13.556;2022-11-12T06:47:00;102932.47;;;1.47;100.00
7052;BME280;3567;52.444;13.556;2022-11-12T06:49:26;102927.31;;;1.45;100.00
7052;BME280;3567;52.444;13.556;2022-11-12T06:51:51;102939.78;;;1.43;100.00
7052;BME280;3567;52.444;13.556;2022-11-12T06:54:16;102932.69;;;1.44;100.00
7052;BME280;3567;52.444;13.556;2022-11-12T06:56:43;102934.41;;;1.45;100.00
7052;BME280;3567;52.444;13.556;2022-11-12T06:59:09;102947.28;;;1.49;100.00
7052;BME280;3567;52.444;13.556;2022-11-12T07:01:35;102954.94;;;1.52;100.00
7052;BME280;3567;52.444;13.556;2022-11-12T07:04:00;102957.03;;;1.60;100.00
7052;BME280;3567;52.444;13.556;2022-11-12T07:06:25;102943.44;;;1.65;100.00
7052;BME280;3567;52.444;13.556;2022-11-12T07:08:51;102950.19;;;1.69;100.00
7052;BME280;3567;52.444;13.556;2022-11-12T07:11:18;102957.91;;;1.72;100.00
7052;BME280;3567;52.444;13.556;2022-11-12T07:13:44;102959.38;;;1.76;100.00
7052;BME280;3567;52.444;13.556;2022-11-12T07:16:10;102959.81;;;1.81;100.00
7052;BME280;3567;52.444;13.556;2022-11-12T07:18:35;102960.44;;;1.84;100.00
7052;BME280;3567;52.444;13.556;2022-11-12T07:21:03;102964.53;;;1.89;100.00
7052;BME280;3567;52.444;13.556;2022-11-12T07:23:30;102957.94;;;1.94;100.00
7052;BME280;3567;52.444;13.556;2022-11-12T07:26:22;102960.00;;;2.02;100.00
7052;BME280;3567;52.444;13.556;2022-11-12T07:28:48;102963.75;;;2.10;100.00
7052;BME280;3567;52.444;13.556;2022-11-12T07:31:16;102961.34;;;2.19;100.00
7052;BME280;3567;52.444;13.556;2022-11-12T07:33:42;102977.31;;;2.28;100.00
7052;BME280;3567;52.444;13.556;2022-11-12T07:36:29;102978.19;;;2.40;100.00
7052;BME280;3567;52.444;13.556;2022-11-12T07:38:58;102971.69;;;2.55;100.00
7052;BME280;3567;52.444;13.556;2022-11-12T07:41:24;102992.00;;;2.66;100.00
7052;BME280;3567;52.444;13.556;2022-11-12T07:43:51;102980.81;;;2.74;100.00
7052;BME280;3567;52.444;13.556;2022-11-12T07:46:22;102982.72;;;2.94;100.00
7052;BME280;3567;52.444;13.556;2022-11-12T07:48:48;102983.63;;;3.15;100.00
7052;BME280;3567;52.444;13.556;2022-11-12T07:51:19;102977.28;;;3.39;100.00
7052;BME280;3567;52.444;13.556;2022-11-12T07:53:46;102983.97;;;3.54;100.00
7052;BME280;3567;52.444;13.556;2022-11-12T07:56:16;102983.91;;;3.65;100.00
7052;BME280;3567;52.444;13.556;2022-11-12T07:58:45;102975.59;;;3.91;100.00
7052;BME280;3567;52.444;13.556;2022-11-12T08:01:34;102985.59;;;4.08;100.00
7052;BME280;3567;52.444;13.556;2022-11-12T08:04:01;102990.97;;;4.18;100.00
7052;BME280;3567;52.444;13.556;2022-11-12T08:06:27;102989.06;;;4.30;100.00
7052;BME280;3567;52.444;13.556;2022-11-12T08:08:54;102981.19;;;4.49;100.00
7052;BME280;3567;52.444;13.556;2022-11-12T08:11:20;102979.19;;;4.72;100.00
7052;BME280;3567;52.444;13.556;2022-11-12T08:13:46;102995.59;;;4.87;100.00
7052;BME280;3567;52.444;13.556;2022-11-12T08:16:11;102996.31;;;4.98;100.00
7052;BME280;3567;52.444;13.556;2022-11-12T08:18:37;102985.56;;;5.10;100.00
7052;BME280;3567;52.444;13.556;2022-11-12T08:21:05;102984.47;;;5.32;100.00
7052;BME280;3567;52.444;13.556;2022-11-12T08:23:30;102991.78;;;5.49;100.00
7052;BME280;3567;52.444;13.556;2022-11-12T08:25:57;102986.72;;;5.65;100.00
7052;BME280;3567;52.444;13.556;2022-11-12T08:28:23;102984.44;;;5.80;100.00
7052;BME280;3567;52.444;13.556;2022-11-12T08:30:48;102972.84;;;6.00;100.00
7052;BME280;3567;52.444;13.556;2022-11-12T08:33:14;102986.66;;;6.23;100.00
7052;BME280;3567;52.444;13.556;2022-11-12T08:35:39;102977.91;;;6.41;100.00
7052;BME280;3567;52.444;13.556;2022-11-12T08:38:05;102980.47;;;6.60;100.00
7052;BME280;3567;52.444;13.556;2022-11-12T08:40:32;102985.06;;;6.68;100.00
7052;BME280;3567;52.444;13.556;2022-11-12T08:42:59;102982.06;;;6.80;100.00
7052;BME280;3567;52.444;13.556;2022-11-12T08:45:26;102981.28;;;6.98;100.00
7052;BME280;3567;52.444;13.556;2022-11-12T08:47:52;102993.06;;;7.13;100.00
7052;BME280;3567;52.444;13.556;2022-11-12T08:50:17;102988.91;;;7.28;100.00
7052;BME280;3567;52.444;13.556;2022-11-12T08:52:43;102985.25;;;7.47;100.00
7052;BME280;3567;52.444;13.556;2022-11-12T08:55:08;102981.09;;;7.71;100.00
7052;BME280;3567;52.444;13.556;2022-11-12T08:57:41;102974.81;;;7.98;100.00
7052;BME280;3567;52.444;13.556;2022-11-12T09:00:08;102988.31;;;8.22;100.00
7052;BME280;3567;52.444;13.556;2022-11-12T09:02:34;102996.28;;;8.40;100.00
7052;BME280;3567;52.444;13.556;2022-11-12T09:04:59;102993.19;;;8.53;100.00
7052;BME280;3567;52.444;13.556;2022-11-12T09:07:24;102987.56;;;8.64;100.00
7052;BME280;3567;52.444;13.556;2022-11-12T09:09:50;102999.31;;;8.79;100.00
7052;BME280;3567;52.444;13.556;2022-11-12T09:12:15;102991.16;;;8.89;100.00
7052;BME280;3567;52.444;13.556;2022-11-12T09:14:44;102996.38;;;8.99;100.00
7052;BME280;3567;52.444;13.556;2022-11-12T09:17:09;103002.41;;;9.09;99.90
7052;BME280;3567;52.444;13.556;2022-11-12T09:19:34;102996.75;;;9.20;100.00
7052;BME280;3567;52.444;13.556;2022-11-12T09:22:00;102989.44;;;9.38;99.02
7052;BME280;3567;52.444;13.556;2022-11-12T09:24:25;102997.81;;;9.60;98.92
7052;BME280;3567;52.444;13.556;2022-11-12T09:26:54;103008.00;;;9.73;97.62
7052;BME280;3567;52.444;13.556;2022-11-12T09:29:20;102997.97;;;9.75;97.10
7052;BME280;3567;52.444;13.556;2022-11-12T09:31:45;102996.16;;;9.75;96.58
7052;BME280;3567;52.444;13.556;2022-11-12T09:34:11;102997.47;;;9.79;97.02
7052;BME280;3567;52.444;13.556;2022-11-12T09:36:36;103002.16;;;9.93;97.16
7052;BME280;3567;52.444;13.556;2022-11-12T09:39:02;103000.97;;;10.12;96.47
7052;BME280;3567;52.444;13.556;2022-11-12T09:41:31;103001.44;;;10.32;95.71
7052;BME280;3567;52.444;13.556;2022-11-12T09:44:03;102997.72;;;10.49;95.00
7052;BME280;3567;52.444;13.556;2022-11-12T09:49:32;103000.19;;;10.59;93.25
7052;BME280;3567;52.444;13.556;2022-11-12T09:52:04;102997.34;;;10.61;93.69
7052;BME280;3567;52.444;13.556;2022-11-12T09:54:32;103007.56;;;10.65;93.75
7052;BME280;3567;52.444;13.556;2022-11-12T09:56:59;102995.44;;;10.78;93.32
7052;BME280;3567;52.444;13.556;2022-11-12T09:59:31;102995.38;;;11.17;92.74
7052;BME280;3567;52.444;13.556;2022-11-12T10:02:20;103000.16;;;11.52;91.33
7052;BME280;3567;52.444;13.556;2022-11-12T10:12:53;102985.44;;;11.48;90.36
7052;BME280;3567;52.444;13.556;2022-11-12T10:15:43;102997.59;;;11.59;89.56
7052;BME280;3567;52.444;13.556;2022-11-12T10:24:00;102979.22;;;12.09;88.98
7052;BME280;3567;52.444;13.556;2022-11-12T10:26:25;102991.56;;;12.32;88.04
7052;BME280;3567;52.444;13.556;2022-11-12T10:31:36;102976.63;;;12.74;87.47
7052;BME280;3567;52.444;13.556;2022-11-12T10:36:34;103001.00;;;13.45;85.03
7052;BME280;3567;52.444;13.556;2022-11-12T10:39:01;102983.69;;;13.76;83.96
7052;BME280;3567;52.444;13.556;2022-11-12T10:41:28;102966.59;;;14.25;83.07
7052;BME280;3567;52.444;13.556;2022-11-12T10:44:04;102972.28;;;14.78;81.32
7052;BME280;3567;52.444;13.556;2022-11-12T10:46:32;102986.84;;;14.90;80.37
7052;BME280;3567;52.444;13.556;2022-11-12T10:49:24;102981.72;;;15.08;79.70
7052;BME280;3567;52.444;13.556;2022-11-12T10:51:56;102966.59;;;15.34;79.36
7052;BME280;3567;52.444;13.556;2022-11-12T10:54:35;102971.41;;;15.45;78.26
7052;BME280;3567;52.444;13.556;2022-11-12T10:57:21;102996.69;;;15.17;78.82
7052;BME280;3567;52.444;13.556;2022-11-12T11:02:53;102964.78;;;14.73;79.28
7052;BME280;3567;52.444;13.556;2022-11-12T11:05:33;102980.38;;;14.78;80.52
7052;BME280;3567;52.444;13.556;2022-11-12T11:07:59;102972.34;;;14.98;80.57
7052;BME280;3567;52.444;13.556;2022-11-12T11:10:29;102965.34;;;15.23;80.89
7052;BME280;3567;52.444;13.556;2022-11-12T11:13:15;102959.56;;;15.59;77.97
7052;BME280;3567;52.444;13.556;2022-11-12T11:15:57;102960.84;;;15.77;77.79
7052;BME280;3567;52.444;13.556;2022-11-12T11:18:23;102962.69;;;16.09;77.74
7052;BME280;3567;52.444;13.556;2022-11-12T11:20:58;102962.59;;;16.29;75.79
7052;BME280;3567;52.444;13.556;2022-11-12T11:29:18;102959.84;;;16.49;73.72
7052;BME280;3567;52.444;13.556;2022-11-12T11:31:58;102943.16;;;16.59;73.69
7052;BME280;3567;52.444;13.556;2022-11-12T11:37:27;102943.97;;;17.04;71.54
7052;BME280;3567;52.444;13.556;2022-11-12T11:40:17;102938.31;;;17.12;72.19
7052;BME280;3567;52.444;13.556;2022-11-12T11:43:22;102932.28;;;17.42;70.54
7052;BME280;3567;52.444;13.556;2022-11-12T11:56:54;102932.59;;;17.52;69.27
7052;BME280;3567;52.444;13.556;2022-11-12T12:02:23;102931.13;;;17.24;69.20
7052;BME280;3567;52.444;13.556;2022-11-12T12:05:06;102929.13;;;16.82;70.72
7052;BME280;3567;52.444;13.556;2022-11-12T12:12:49;102926.53;;;16.55;71.58
7052;BME280;3567;52.444;13.556;2022-11-12T12:17:49;102915.94;;;15.89;73.02
7052;BME280;3567;52.444;13.556;2022-11-12T12:20:23;102910.75;;;15.74;74.63
7052;BME280;3567;52.444;13.556;2022-11-12T12:22:58;102907.41;;;15.79;74.33
7052;BME280;3567;52.444;13.556;2022-11-12T12:25:32;102909.25;;;15.98;73.88
7052;BME280;3567;52.444;13.556;2022-11-12T12:28:24;102918.56;;;16.15;74.16
7052;BME280;3567;52.444;13.556;2022-11-12T12:30:56;102902.31;;;16.22;74.31
7052;BME280;3567;52.444;13.556;2022-11-12T12:33:56;102907.25;;;16.38;73.09
7052;BME280;3567;52.444;13.556;2022-11-12T12:36:24;102922.44;;;16.33;73.95
7052;BME280;3567;52.444;13.556;2022-11-12T12:39:04;102909.19;;;16.24;73.86
7052;BME280;3567;52.444;13.556;2022-11-12T12:41:45;102909.63;;;16.08;73.16
7052;BME280;3567;52.444;13.556;2022-11-12T12:44:14;102911.56;;;15.88;73.97
7052;BME280;3567;52.444;13.556;2022-11-12T12:46:44;102915.09;;;15.62;74.79
7052;BME280;3567;52.444;13.556;2022-11-12T12:49:24;102904.09;;;15.30;75.64
7052;BME280;3567;52.444;13.556;2022-11-12T12:51:52;102913.00;;;15.04;77.56
7052;BME280;3567;52.444;13.556;2022-11-12T12:56:58;102893.38;;;14.69;78.42
7052;BME280;3567;52.444;13.556;2022-11-12T12:59:23;102891.50;;;14.56;79.38
7052;BME280;3567;52.444;13.556;2022-11-12T13:01:58;102885.19;;;14.42;79.51
7052;BME280;3567;52.444;13.556;2022-11-12T13:04:52;102889.88;;;14.27;80.69
7052;BME280;3567;52.444;13.556;2022-11-12T13:07:40;102873.66;;;14.14;81.14
7052;BME280;3567;52.444;13.556;2022-11-12T13:13:25;102872.28;;;13.90;82.15
7052;BME280;3567;52.444;13.556;2022-11-12T13:15:53;102870.81;;;13.87;82.21
7052;BME280;3567;52.444;13.556;2022-11-12T13:23:58;102880.28;;;13.77;83.18
7052;BME280;3567;52.444;13.556;2022-11-12T13:26:57;102885.88;;;13.75;83.50
7052;BME280;3567;52.444;13.556;2022-11-12T13:29:24;102885.69;;;13.77;83.79
7052;BME280;3567;52.444;13.556;2022-11-12T13:32:34;102881.72;;;13.73;83.91
7052;BME280;3567;52.444;13.556;2022-11-12T13:40:19;102887.69;;;13.68;84.33
7052;BME280;3567;52.444;13.556;2022-11-12T13:42:47;102885.81;;;13.69;84.10
7052;BME280;3567;52.444;13.556;2022-11-12T13:45:17;102891.06;;;13.77;84.46
7052;BME280;3567;52.444;13.556;2022-11-12T13:47:43;102883.47;;;13.87;84.19
7052;BME280;3567;52.444;13.556;2022-11-12T13:50:15;102889.47;;;13.89;84.36
7052;BME280;3567;52.444;13.556;2022-11-12T13:52:42;102882.59;;;13.80;84.56
7052;BME280;3567;52.444;13.556;2022-11-12T13:55:15;102881.72;;;13.73;84.81
7052;BME280;3567;52.444;13.556;2022-11-12T13:57:48;102881.66;;;13.66;84.83
7052;BME280;3567;52.444;13.556;2022-11-12T14:02:49;102876.88;;;13.61;85.32
7052;BME280;3567;52.444;13.556;2022-11-12T14:05:18;102887.81;;;13.53;85.95
7052;BME280;3567;52.444;13.556;2022-11-12T14:10:52;102886.03;;;13.39;86.24
7052;BME280;3567;52.444;13.556;2022-11-12T14:13:52;102893.81;;;13.27;86.76
7052;BME280;3567;52.444;13.556;2022-11-12T14:16:29;102883.31;;;13.18;86.61
7052;BME280;3567;52.444;13.556;2022-11-12T14:19:11;102889.22;;;13.06;87.32
7052;BME280;3567;52.444;13.556;2022-11-12T14:21:41;102889.75;;;12.95;87.56
7052;BME280;3567;52.444;13.556;2022-11-12T14:24:09;102889.22;;;12.85;87.75
7052;BME280;3567;52.444;13.556;2022-11-12T14:26:41;102894.91;;;12.75;88.35
7052;BME280;3567;52.444;13.556;2022-11-12T14:29:15;102886.50;;;12.64;88.39
7052;BME280;3567;52.444;13.556;2022-11-12T14:31:41;102879.31;;;12.49;89.18
7052;BME280;3567;52.444;13.556;2022-11-12T14:34:28;102876.28;;;12.38;90.32
7052;BME280;3567;52.444;13.556;2022-11-12T14:36:54;102884.63;;;12.28;90.55